Time;durP1;ratioP1;P1;durP2;ratioP2;P2;SDS_P1;SDS_P2;PMS_P1;PMS_P2;Temp;Humidity;BMP_temperature;BMP_pressure;BME280_temperature;BME280_humidity;BME280_pressure;Samples;Min_cycle;Max_cycle;Signal;HPM_P1;HPM_P2
2022/01/18 00:01:55;;;;;;;24.42;4.65;;;7.00;99.90;;;;;;5056056;28;20045;-76
2022/01/18 00:04:23;;;;;;;28.35;4.38;;;6.50;99.90;;;;;;5055573;28;20049;-78
2022/01/18 00:06:51;;;;;;;20.08;3.75;;;6.60;99.90;;;;;;5037534;28;20049;-74
2022/01/18 00:09:19;;;;;;;24.02;5.20;;;6.50;99.90;;;;;;5056222;28;20055;-73
2022/01/18 00:11:51;;;;;;;23.88;4.95;;;7.50;99.90;;;;;;5056465;28;20045;-76
2022/01/18 00:14:24;;;;;;;29.40;4.55;;;6.50;99.90;;;;;;5056026;28;20041;-78
2022/01/18 00:17:16;;;;;;;32.65;5.07;;;6.50;99.90;;;;;;5055755;28;20124;-72
2022/01/18 00:19:47;;;;;;;27.23;4.80;;;6.50;99.90;;;;;;5055618;28;20053;-76
2022/01/18 00:22:14;;;;;;;24.75;4.75;;;6.50;99.90;;;;;;5037285;28;20098;-78
2022/01/18 00:24:41;;;;;;;23.73;5.28;;;6.50;99.90;;;;;;5055422;28;20044;-77
2022/01/18 00:27:13;;;;;;;27.90;4.95;;;6.50;99.90;;;;;;5055525;28;20128;-79
2022/01/18 00:29:45;;;;;;;27.20;5.50;;;6.90;99.90;;;;;;5055544;28;20497;-72
2022/01/18 00:32:21;;;;;;;28.35;5.38;;;6.40;99.90;;;;;;5055634;28;20049;-75
2022/01/18 00:34:51;;;;;;;35.10;5.68;;;6.50;99.90;;;;;;5055689;28;20036;-73
2022/01/18 00:37:27;;;;;;;30.77;5.85;;;6.40;99.90;;;;;;5055191;28;20045;-72
2022/01/18 00:39:54;;;;;;;32.53;5.78;;;6.40;99.90;;;;;;5037245;28;20048;-74
2022/01/18 00:42:19;;;;;;;36.75;6.18;;;6.60;99.90;;;;;;5039809;28;20053;-74
2022/01/18 00:44:45;;;;;;;43.13;6.00;;;6.40;99.90;;;;;;5039780;28;20503;-73
2022/01/18 00:47:11;;;;;;;38.17;6.10;;;6.40;99.90;;;;;;5041179;28;20045;-78
2022/01/18 00:49:43;;;;;;;36.55;5.80;;;6.70;99.90;;;;;;5058981;28;20103;-78
2022/01/18 00:52:09;;;;;;;41.33;5.90;;;6.50;99.90;;;;;;5056604;28;20047;-79
2022/01/18 00:54:39;;;;;;;42.65;5.82;;;6.50;99.90;;;;;;5054858;28;20052;-78
2022/01/18 00:57:05;;;;;;;42.25;5.20;;;6.50;99.90;;;;;;5054743;28;20095;-79
2022/01/18 00:59:32;;;;;;;34.90;5.75;;;6.50;99.90;;;;;;5054508;28;20094;-78
2022/01/18 01:01:57;;;;;;;35.22;5.95;;;6.60;99.90;;;;;;5054192;28;20033;-78
2022/01/18 01:04:27;;;;;;;37.85;6.97;;;6.60;99.90;;;;;;5036806;28;20052;-77
2022/01/18 01:06:53;;;;;;;41.00;6.68;;;6.70;99.90;;;;;;5054654;28;20056;-76
2022/01/18 01:09:19;;;;;;;32.10;7.20;;;6.60;99.90;;;;;;5054254;28;20045;-76
2022/01/18 01:11:44;;;;;;;37.20;5.68;;;6.60;99.90;;;;;;5054227;28;20094;-74
2022/01/18 01:14:17;;;;;;;35.97;5.90;;;6.60;99.90;;;;;;5036204;28;20491;-75
2022/01/18 01:46:18;;;;;;;31.00;5.53;;;6.40;99.90;;;;;;4973031;28;20070;-76
2022/01/18 01:48:52;;;;;;;26.30;5.22;;;6.10;99.90;;;;;;4972958;28;20056;-77
2022/01/18 01:51:18;;;;;;;35.10;5.28;;;6.10;99.90;;;;;;4956975;28;20050;-79
2022/01/18 01:53:43;;;;;;;30.33;5.53;;;6.40;99.90;;;;;;4972783;28;20062;-75
2022/01/18 01:56:09;;;;;;;30.80;5.85;;;6.10;99.90;;;;;;4966049;28;20060;-79
2022/01/18 01:58:35;;;;;;;34.05;6.35;;;6.10;99.90;;;;;;4937145;29;20051;-78
2022/01/18 02:01:05;;;;;;;29.65;5.63;;;6.10;99.90;;;;;;4937532;29;20047;-76
2022/01/18 02:03:32;;;;;;;31.20;5.50;;;6.00;99.90;;;;;;4937360;29;20518;-78
2022/01/18 02:05:58;;;;;;;34.00;6.05;;;6.00;99.90;;;;;;4937691;29;20050;-78
2022/01/18 02:08:23;;;;;;;36.83;6.53;;;6.00;99.90;;;;;;4953140;29;20078;-76
2022/01/18 02:10:49;;;;;;;32.00;5.85;;;6.00;99.90;;;;;;4936084;29;20063;-79
2022/01/18 02:13:15;;;;;;;33.53;6.32;;;6.00;99.90;;;;;;4953016;28;20119;-76
2022/01/18 02:15:59;;;;;;;38.97;7.03;;;6.00;99.90;;;;;;4953183;29;20051;-79
2022/01/18 02:23:52;;;;;;;37.72;6.97;;;6.00;99.90;;;;;;5052839;28;20083;-76
2022/01/18 02:26:18;;;;;;;36.88;6.25;;;6.10;99.90;;;;;;5034905;28;20044;-76
2022/01/18 02:28:44;;;;;;;30.77;5.88;;;6.10;99.90;;;;;;5052883;28;20045;-73
2022/01/18 02:31:09;;;;;;;41.28;6.30;;;6.10;99.90;;;;;;5052896;28;20045;-74
2022/01/18 02:33:35;;;;;;;35.28;6.55;;;6.20;99.90;;;;;;5052764;28;20037;-73
2022/01/18 02:36:05;;;;;;;37.28;6.80;;;6.10;99.90;;;;;;5052937;28;20431;-72
2022/01/18 02:38:31;;;;;;;41.17;6.57;;;6.20;99.90;;;;;;5034737;28;20061;-71
2022/01/18 02:40:58;;;;;;;42.70;6.93;;;6.70;99.90;;;;;;5034923;28;20504;-72
2022/01/18 02:46:08;;;;;;;33.97;5.95;;;6.20;99.90;;;;;;5034750;28;20045;-71
2022/01/18 02:48:33;;;;;;;22.15;4.45;;;6.20;99.90;;;;;;5034668;28;20056;-72
2022/01/18 02:50:59;;;;;;;31.20;5.00;;;6.20;99.90;;;;;;5052815;28;20041;-73
2022/01/18 02:53:25;;;;;;;30.48;5.35;;;6.20;99.90;;;;;;5034613;28;20056;-72
2022/01/18 02:55:51;;;;;;;29.25;5.38;;;6.20;99.90;;;;;;5052679;28;20044;-71
2022/01/18 02:58:24;;;;;;;32.45;5.72;;;6.20;99.90;;;;;;5052311;28;20045;-71
2022/01/18 03:03:37;;;;;;;20.58;4.95;;;6.20;99.90;;;;;;5034544;28;20045;-71
2022/01/18 03:06:05;;;;;;;31.50;4.95;;;6.20;99.90;;;;;;5033970;28;20049;-71
2022/01/18 03:08:33;;;;;;;31.98;5.45;;;6.20;99.90;;;;;;5034617;28;20045;-70
2022/01/18 03:10:59;;;;;;;30.02;5.30;;;6.30;99.90;;;;;;5034736;28;20392;-71
2022/01/18 03:13:25;;;;;;;39.53;5.25;;;6.30;99.90;;;;;;5052169;28;20052;-73
2022/01/18 03:15:51;;;;;;;23.02;4.75;;;6.30;99.90;;;;;;5052109;28;20103;-73
2022/01/18 03:18:16;;;;;;;31.60;4.85;;;6.40;99.90;;;;;;5052477;28;20446;-72
2022/01/18 03:20:42;;;;;;;28.10;4.10;;;6.30;99.90;;;;;;5034182;28;20140;-72
2022/01/18 03:23:16;;;;;;;25.10;4.10;;;6.50;99.90;;;;;;5034539;28;20099;-70
2022/01/18 03:26:00;;;;;;;27.98;4.85;;;6.30;99.90;;;;;;5056552;28;20049;-72
2022/01/18 03:28:27;;;;;;;31.80;5.35;;;6.30;99.90;;;;;;5021780;28;20530;-73
2022/01/18 03:30:54;;;;;;;27.70;4.25;;;6.30;99.90;;;;;;5056100;28;20079;-73
2022/01/18 03:33:23;;;;;;;24.60;4.70;;;6.30;99.90;;;;;;5056545;28;20041;-72
2022/01/18 03:35:50;;;;;;;23.23;4.70;;;6.30;99.90;;;;;;5056243;28;20048;-71
2022/01/18 03:38:18;;;;;;;28.50;4.10;;;6.60;99.90;;;;;;5056299;28;20385;-72
2022/01/18 03:40:43;;;;;;;27.83;4.18;;;6.40;99.90;;;;;;5056193;28;20043;-71
2022/01/18 03:43:12;;;;;;;20.20;3.53;;;6.40;99.90;;;;;;5055987;28;20146;-73
2022/01/18 03:45:42;;;;;;;27.10;4.30;;;6.40;99.90;;;;;;5037713;28;20132;-73
2022/01/18 03:48:16;;;;;;;20.40;3.30;;;6.70;99.90;;;;;;5037825;28;20496;-79
2022/01/18 03:50:43;;;;;;;16.42;3.17;;;6.40;99.90;;;;;;5056101;28;20480;-78
2022/01/18 03:53:10;;;;;;;22.13;3.70;;;6.40;99.90;;;;;;5038028;28;20149;-79
2022/01/18 03:55:36;;;;;;;26.98;3.85;;;6.40;99.90;;;;;;5038149;28;20462;-78
2022/01/18 03:58:02;;;;;;;28.45;3.15;;;6.60;99.90;;;;;;5056014;28;20084;-79
2022/01/18 04:00:28;;;;;;;21.10;3.33;;;6.40;99.90;;;;;;5037899;28;20049;-78
2022/01/18 04:02:54;;;;;;;28.10;4.30;;;6.80;99.90;;;;;;5037606;28;20057;-73
2022/01/18 04:05:20;;;;;;;26.77;3.85;;;6.50;99.90;;;;;;5037992;28;20057;-76
2022/01/18 04:07:46;;;;;;;26.48;3.85;;;6.50;99.90;;;;;;5055598;28;20409;-79
2022/01/18 04:10:13;;;;;;;21.88;3.40;;;6.50;99.90;;;;;;5037856;28;20052;-80
2022/01/18 04:12:39;;;;;;;25.85;4.32;;;6.50;99.90;;;;;;5055648;28;20155;-77
2022/01/18 04:15:11;;;;;;;22.88;3.55;;;6.50;99.90;;;;;;5037976;28;20060;-78
2022/01/18 04:30:51;;;;;;;16.25;3.17;;;6.70;99.90;;;;;;5055311;28;20131;-71
2022/01/18 04:33:16;;;;;;;22.77;3.00;;;6.50;99.90;;;;;;5037233;28;20131;-74
2022/01/18 04:35:42;;;;;;;18.75;3.30;;;6.50;99.90;;;;;;5055188;28;20462;-73
2022/01/18 04:38:08;;;;;;;20.65;3.38;;;6.50;99.90;;;;;;5037728;28;20102;-73
2022/01/18 04:40:36;;;;;;;25.92;3.22;;;6.60;99.90;;;;;;5059139;28;20033;-73
2022/01/18 04:43:38;;;;;;;19.48;3.17;;;6.50;99.90;;;;;;5058620;28;20045;-73
2022/01/18 04:48:34;;;;;;;17.02;3.65;;;6.90;99.90;;;;;;5058701;28;20512;-79
2022/01/18 04:51:07;;;;;;;19.17;3.10;;;6.50;99.90;;;;;;5055973;28;20080;-79
2022/01/18 04:53:33;;;;;;;;;;;6.50;99.90;;;;;;5055210;28;20607;-79
2022/01/18 04:56:05;;;;;;;21.20;3.30;;;6.40;99.90;;;;;;5037044;28;19928;-76
2022/01/18 04:58:31;;;;;;;14.52;3.28;;;6.40;99.90;;;;;;5054632;28;20102;-75
2022/01/18 05:00:59;;;;;;;17.70;3.70;;;6.40;99.90;;;;;;5036869;28;20123;-73
2022/01/18 05:03:26;;;;;;;24.25;3.40;;;6.40;99.90;;;;;;5054650;28;20044;-74
2022/01/18 05:05:53;;;;;;;17.90;3.15;;;6.40;99.90;;;;;;5055854;28;20064;-76
2022/01/18 05:08:18;;;;;;;21.33;3.20;;;6.40;99.90;;;;;;5055074;28;20049;-77
2022/01/18 05:10:51;;;;;;;23.67;3.00;;;6.40;99.90;;;;;;5036687;28;20419;-80
2022/01/18 05:13:58;;;;;;;17.30;2.92;;;6.40;99.90;;;;;;5054351;28;20049;-79
2022/01/18 05:24:15;;;;;;;11.70;2.03;;;6.60;99.90;;;;;;4973369;28;20427;-79
2022/01/18 05:26:41;;;;;;;17.55;2.45;;;6.40;99.90;;;;;;4973370;28;20065;-78
2022/01/18 05:29:06;;;;;;;16.95;2.90;;;6.40;99.90;;;;;;4973391;28;20058;-77
2022/01/18 05:31:32;;;;;;;15.02;2.83;;;6.70;99.90;;;;;;4973383;28;20058;-78
2022/01/18 05:33:58;;;;;;;15.23;3.33;;;6.40;99.90;;;;;;4940950;28;20051;-77
2022/01/18 05:36:23;;;;;;;13.90;2.70;;;6.40;99.90;;;;;;4972735;28;20086;-79
2022/01/18 05:38:49;;;;;;;17.08;3.30;;;6.40;99.90;;;;;;4973107;28;20050;-78
2022/01/18 05:41:15;;;;;;;15.10;2.72;;;6.40;99.90;;;;;;4956880;28;20154;-78
2022/01/18 05:43:41;;;;;;;15.73;3.35;;;6.50;99.90;;;;;;4973161;28;20043;-76
2022/01/18 05:46:07;;;;;;;18.73;3.00;;;6.40;99.90;;;;;;4972709;28;20587;-78
2022/01/18 05:48:33;;;;;;;18.75;3.40;;;6.40;99.90;;;;;;4973101;28;20050;-75
2022/01/18 05:50:59;;;;;;;17.30;3.17;;;6.40;99.90;;;;;;4972482;28;20050;-75
2022/01/18 05:53:30;;;;;;;15.27;2.85;;;6.50;99.90;;;;;;4973061;28;20062;-78
2022/01/18 05:55:57;;;;;;;18.15;2.70;;;6.50;99.90;;;;;;4972740;28;20087;-78
2022/01/18 05:58:23;;;;;;;13.35;2.15;;;6.50;99.90;;;;;;4957188;28;20427;-74
2022/01/18 06:00:52;;;;;;;14.43;2.40;;;6.50;99.90;;;;;;4982809;28;20110;-74
2022/01/18 06:03:27;;;;;;;14.32;2.22;;;6.50;99.90;;;;;;5035832;28;20088;-75
2022/01/18 06:08:39;;;;;;;15.27;2.80;;;6.50;99.90;;;;;;5035472;28;20453;-78
2022/01/18 06:11:05;;;;;;;14.02;2.40;;;6.50;99.90;;;;;;5053457;28;20052;-78
2022/01/18 06:13:30;;;;;;;11.02;1.90;;;6.50;99.90;;;;;;5035634;28;20053;-79
2022/01/18 06:15:56;;;;;;;21.98;2.42;;;6.50;99.90;;;;;;5053297;28;20052;-74
2022/01/18 06:18:22;;;;;;;10.43;2.17;;;6.50;99.90;;;;;;5035245;28;20144;-74
2022/01/18 06:20:49;;;;;;;15.10;2.88;;;6.60;99.90;;;;;;5031834;28;20061;-72
2022/01/18 06:23:15;;;;;;;8.43;2.03;;;6.50;99.90;;;;;;5032901;28;20127;-75
2022/01/18 06:25:41;;;;;;;13.43;2.60;;;6.50;99.90;;;;;;5032009;28;20129;-74
2022/01/18 06:28:07;;;;;;;11.48;2.35;;;6.40;99.90;;;;;;5031903;28;20125;-73
2022/01/18 06:30:33;;;;;;;12.00;2.50;;;6.40;99.90;;;;;;5031785;28;20056;-75
2022/01/18 06:32:59;;;;;;;11.15;2.10;;;6.40;99.90;;;;;;5033226;28;20033;-73
2022/01/18 06:35:24;;;;;;;14.85;2.00;;;6.80;99.90;;;;;;5031839;28;20500;-72
2022/01/18 06:37:50;;;;;;;11.93;2.30;;;6.40;99.90;;;;;;5032814;28;20041;-72
2022/01/18 06:40:16;;;;;;;15.57;2.45;;;6.40;99.90;;;;;;5032957;28;20400;-74
2022/01/18 06:42:43;;;;;;;9.50;1.92;;;6.40;99.90;;;;;;5033165;28;20040;-75
2022/01/18 06:45:10;;;;;;;5.45;1.17;;;6.40;99.90;;;;;;5031551;28;20557;-74
2022/01/18 06:47:37;;;;;;;5.43;1.27;;;6.40;99.90;;;;;;5032983;28;20091;-74
2022/01/18 06:50:04;;;;;;;9.68;1.90;;;6.40;99.90;;;;;;5032591;28;20045;-75
2022/01/18 06:52:30;;;;;;;13.65;2.38;;;6.40;99.90;;;;;;5033037;28;20041;-73
2022/01/18 06:54:56;;;;;;;10.35;2.00;;;6.40;99.90;;;;;;5031266;28;20058;-75
2022/01/18 06:57:21;;;;;;;11.88;2.60;;;6.40;99.90;;;;;;5032701;28;20056;-78
2022/01/18 06:59:47;;;;;;;13.65;2.92;;;6.80;99.90;;;;;;5032326;28;20406;-76
2022/01/18 07:02:13;;;;;;;11.30;2.38;;;6.40;99.90;;;;;;5031468;28;20041;-75
2022/01/18 07:04:38;;;;;;;15.98;2.55;;;6.40;99.90;;;;;;5031434;28;20104;-72
2022/01/18 07:07:05;;;;;;;11.50;2.55;;;6.60;99.90;;;;;;5031764;28;20551;-73
2022/01/18 07:09:32;;;;;;;12.10;2.63;;;6.40;99.90;;;;;;5032417;28;20386;-74
2022/01/18 07:11:59;;;;;;;10.57;2.53;;;6.40;99.90;;;;;;5031320;28;20049;-74
2022/01/18 07:14:26;;;;;;;12.13;2.78;;;6.40;99.90;;;;;;5032906;28;20045;-72
2022/01/18 07:16:51;;;;;;;14.05;3.58;;;6.40;99.90;;;;;;5032547;28;20045;-73
2022/01/18 07:19:18;;;;;;;12.20;3.42;;;6.40;99.90;;;;;;5033780;28;20052;-74
2022/01/18 07:21:44;;;;;;;14.07;3.47;;;6.40;99.90;;;;;;5052001;28;20498;-75
2022/01/18 07:24:35;;;;;;;14.05;3.08;;;6.40;99.90;;;;;;5034286;28;20133;-73
2022/01/18 07:27:01;;;;;;;13.20;2.97;;;6.40;99.90;;;;;;5034177;28;20056;-74
2022/01/18 07:29:30;;;;;;;12.75;3.60;;;6.30;99.90;;;;;;5052248;28;20424;-77
2022/01/18 07:31:56;;;;;;;12.98;3.53;;;6.30;99.90;;;;;;5034580;28;20378;-74
2022/01/18 07:34:21;;;;;;;15.25;2.50;;;6.30;99.90;;;;;;5034312;28;20099;-73
2022/01/18 07:36:47;;;;;;;12.20;2.15;;;6.20;99.90;;;;;;5052468;28;20086;-75
2022/01/18 07:39:12;;;;;;;7.95;1.80;;;6.20;99.90;;;;;;5034248;28;20037;-75
2022/01/18 07:41:38;;;;;;;10.73;2.95;;;6.20;99.90;;;;;;5051971;28;20401;-75
2022/01/18 07:44:04;;;;;;;8.38;1.83;;;6.30;99.90;;;;;;5052074;28;20045;-72
2022/01/18 07:46:30;;;;;;;9.93;2.10;;;6.10;99.90;;;;;;5034525;28;20067;-74
2022/01/18 07:48:56;;;;;;;7.47;1.70;;;6.10;99.90;;;;;;5048653;28;20156;-80
2022/01/18 07:51:21;;;;;;;8.32;2.30;;;6.10;99.90;;;;;;5017500;28;20154;-79
2022/01/18 07:53:47;;;;;;;7.90;1.95;;;6.00;99.90;;;;;;5032837;28;20060;-78
2022/01/18 07:56:13;;;;;;;7.45;1.88;;;6.00;99.90;;;;;;5033159;28;20065;-78
2022/01/18 07:58:39;;;;;;;8.93;2.05;;;6.70;99.90;;;;;;5016713;28;20037;-76
2022/01/18 08:01:04;;;;;;;9.35;1.67;;;6.10;99.90;;;;;;5051476;28;20094;-76
2022/01/18 08:03:30;;;;;;;7.22;1.83;;;6.10;99.90;;;;;;5033413;28;20055;-75
2022/01/18 08:05:57;;;;;;;8.18;1.60;;;6.20;99.90;;;;;;5033531;28;20055;-74
2022/01/18 08:08:22;;;;;;;6.80;1.75;;;6.10;99.90;;;;;;5033294;28;20055;-72
2022/01/18 08:10:49;;;;;;;4.50;1.55;;;6.20;99.90;;;;;;5036273;28;20139;-75
2022/01/18 08:13:14;;;;;;;14.23;2.10;;;6.10;99.90;;;;;;5036986;28;20047;-75
2022/01/18 08:15:42;;;;;;;7.93;1.50;;;6.20;99.90;;;;;;5054997;28;20453;-75
2022/01/18 08:18:13;;;;;;;9.30;1.52;;;6.10;99.90;;;;;;5021136;28;20049;-74
2022/01/18 08:20:39;;;;;;;12.40;1.40;;;6.20;99.90;;;;;;5054521;28;20123;-76
2022/01/18 08:23:05;;;;;;;6.32;1.98;;;6.50;99.90;;;;;;5054848;28;20630;-76
2022/01/18 08:25:31;;;;;;;9.55;1.42;;;6.20;99.90;;;;;;5037604;28;20096;-76
2022/01/18 08:27:57;;;;;;;7.38;1.40;;;6.20;99.90;;;;;;5037235;28;20084;-73
2022/01/18 08:30:23;;;;;;;9.18;2.30;;;6.20;99.90;;;;;;5037444;28;20131;-75
2022/01/18 08:32:49;;;;;;;8.88;1.33;;;6.20;99.90;;;;;;5057208;28;20051;-75
2022/01/18 08:35:16;;;;;;;9.98;1.63;;;6.20;99.90;;;;;;5039524;28;20045;-75
2022/01/18 08:37:42;;;;;;;5.13;1.67;;;6.30;99.90;;;;;;5057766;28;20072;-75
2022/01/18 08:40:08;;;;;;;13.73;1.50;;;6.20;99.90;;;;;;5056839;28;20378;-76
2022/01/18 08:42:34;;;;;;;6.45;1.92;;;6.30;99.90;;;;;;5042458;28;20111;-76
2022/01/18 08:45:00;;;;;;;6.80;1.90;;;6.30;99.90;;;;;;5046729;28;20175;-77
2022/01/18 08:47:26;;;;;;;6.20;1.20;;;6.30;99.90;;;;;;5053144;28;20065;-79
2022/01/18 08:49:52;;;;;;;2.13;0.88;;;6.30;99.90;;;;;;5074360;28;20187;-78
2022/01/18 08:52:19;;;;;;;6.65;1.88;;;6.40;99.90;;;;;;5056697;28;20132;-80
2022/01/18 08:54:45;;;;;;;6.15;1.50;;;6.40;99.90;;;;;;5043656;28;20061;-75
2022/01/18 08:57:12;;;;;;;6.03;2.17;;;6.50;99.90;;;;;;5052911;28;20033;-78
2022/01/18 08:59:40;;;;;;;4.55;0.90;;;6.40;99.90;;;;;;5033866;28;20132;-73
2022/01/18 09:02:07;;;;;;;6.95;1.50;;;6.50;99.90;;;;;;5049721;28;20114;-77
2022/01/18 09:04:34;;;;;;;3.67;0.60;;;6.50;99.90;;;;;;5051818;28;20056;-76
2022/01/18 09:07:06;;;;;;;3.92;0.88;;;6.50;99.90;;;;;;5034215;28;20061;-74
2022/01/18 09:09:32;;;;;;;7.32;1.10;;;6.50;99.90;;;;;;5052263;28;20060;-78
2022/01/18 09:11:58;;;;;;;5.72;1.00;;;6.50;99.90;;;;;;5050665;28;20084;-77
2022/01/18 09:14:25;;;;;;;9.85;1.50;;;6.50;99.90;;;;;;5051778;28;20126;-74
2022/01/18 09:16:50;;;;;;;9.70;1.00;;;6.50;99.90;;;;;;5050879;28;20057;-77
2022/01/18 09:19:16;;;;;;;4.68;0.95;;;6.60;99.90;;;;;;5051942;28;20048;-73
2022/01/18 09:21:46;;;;;;;6.63;1.27;;;6.60;99.90;;;;;;5031397;28;20139;-75
2022/01/18 09:24:12;;;;;;;1.52;0.73;;;6.60;99.90;;;;;;5051843;28;20055;-74
2022/01/18 09:26:37;;;;;;;3.45;0.88;;;6.60;99.90;;;;;;5050822;28;20045;-74
2022/01/18 09:29:07;;;;;;;8.25;1.40;;;6.60;99.90;;;;;;5052056;28;20405;-73
2022/01/18 09:31:35;;;;;;;6.10;1.08;;;6.60;99.90;;;;;;5031775;28;20057;-73
2022/01/18 09:34:00;;;;;;;4.68;1.20;;;6.70;99.90;;;;;;5033735;28;20055;-77
2022/01/18 09:36:26;;;;;;;9.63;1.05;;;6.70;99.90;;;;;;5050633;28;20401;-75
2022/01/18 09:38:52;;;;;;;8.13;1.33;;;6.70;99.90;;;;;;5051382;28;20104;-78
2022/01/18 09:41:20;;;;;;;3.58;0.98;;;6.70;99.90;;;;;;5050301;28;20576;-74
2022/01/18 09:43:45;;;;;;;6.93;0.85;;;6.80;99.90;;;;;;5051490;28;20121;-76
2022/01/18 09:46:11;;;;;;;8.48;1.00;;;6.80;99.90;;;;;;5050395;28;20504;-74
2022/01/18 09:48:37;;;;;;;6.10;0.90;;;7.00;99.90;;;;;;5050538;28;20037;-76
2022/01/18 09:51:03;;;;;;;5.93;1.15;;;7.00;99.90;;;;;;5032037;28;20102;-73
2022/01/18 09:53:29;;;;;;;3.20;0.90;;;7.00;99.90;;;;;;5050874;28;20054;-76
2022/01/18 09:55:54;;;;;;;5.28;0.85;;;7.00;99.90;;;;;;5032839;28;20067;-77
2022/01/18 09:58:21;;;;;;;7.30;1.27;;;7.00;99.90;;;;;;5050340;28;20469;-78
2022/01/18 10:00:49;;;;;;;11.77;1.40;;;7.00;99.90;;;;;;5049174;28;20044;-76
2022/01/18 10:03:41;;;;;;;4.60;1.08;;;7.00;99.90;;;;;;5051036;28;20053;-76
2022/01/18 10:06:09;;;;;;;8.63;1.60;;;7.00;99.90;;;;;;5045861;28;20069;-76
2022/01/18 10:08:38;;;;;;;9.05;1.30;;;7.00;99.90;;;;;;5048880;28;20041;-73
2022/01/18 10:11:10;;;;;;;6.53;1.35;;;7.00;99.90;;;;;;5014413;28;20144;-73
2022/01/18 10:13:36;;;;;;;5.20;1.23;;;7.00;99.90;;;;;;5050837;28;20078;-74
2022/01/18 10:16:13;;;;;;;5.70;1.50;;;7.00;99.90;;;;;;5038361;28;20495;-74
2022/01/18 10:18:46;;;;;;;5.18;1.42;;;7.00;99.90;;;;;;5038325;28;20049;-76
2022/01/18 10:21:29;;;;;;;4.47;1.52;;;7.00;99.90;;;;;;5031446;28;20057;-76
2022/01/18 10:24:15;;;;;;;;;;;7.00;99.90;;;;;;5034904;28;20041;-73
2022/01/18 10:26:43;;;;;;;3.15;0.90;;;7.10;99.90;;;;;;5037470;28;19927;-73
2022/01/18 10:29:09;;;;;;;3.78;1.25;;;7.10;99.90;;;;;;5037952;28;20397;-74
2022/01/18 10:31:42;;;;;;;8.70;1.65;;;7.10;99.90;;;;;;5022176;28;20044;-74
2022/01/18 10:37:03;;;;;;;9.40;1.70;;;7.10;99.90;;;;;;5055607;28;20519;-73
2022/01/18 10:39:32;;;;;;;5.53;1.95;;;7.10;99.90;;;;;;5055689;28;20037;-73
2022/01/18 10:42:01;;;;;;;11.93;2.10;;;7.20;99.90;;;;;;5032882;28;20052;-75
2022/01/18 10:44:31;;;;;;;7.15;1.33;;;7.20;99.90;;;;;;5038779;28;20041;-75
2022/01/18 10:46:57;;;;;;;11.48;1.73;;;7.60;99.90;;;;;;5052356;28;20048;-74
2022/01/18 10:49:36;;;;;;;6.25;1.40;;;7.30;99.90;;;;;;5032016;28;20424;-78
2022/01/18 10:52:11;;;;;;;6.82;1.88;;;7.40;99.90;;;;;;5052111;28;20080;-74
2022/01/18 10:54:39;;;;;;;10.45;1.85;;;7.50;99.90;;;;;;5031703;28;20176;-77
2022/01/18 10:57:07;;;;;;;3.60;1.58;;;7.40;99.90;;;;;;5053594;28;20132;-77
2022/01/18 10:59:34;;;;;;;8.82;1.88;;;7.40;99.90;;;;;;5055332;28;20051;-79
2022/01/18 11:02:18;;;;;;;14.77;2.17;;;7.40;99.90;;;;;;5049855;28;20493;-75
2022/01/18 11:04:46;;;;;;;10.70;1.75;;;7.50;99.90;;;;;;5033660;28;20053;-75
2022/01/18 11:07:14;;;;;;;6.18;1.52;;;7.80;99.90;;;;;;5050181;28;20262;-75
2022/01/18 11:09:40;;;;;;;5.38;1.42;;;7.50;99.90;;;;;;5052766;28;20083;-76
2022/01/18 11:12:07;;;;;;;6.90;1.75;;;7.50;99.90;;;;;;5038363;28;20080;-77
2022/01/18 11:14:36;;;;;;;7.13;1.48;;;7.50;99.90;;;;;;5036135;28;20512;-76
2022/01/18 11:17:03;;;;;;;3.85;1.25;;;7.60;99.90;;;;;;5053219;28;20104;-77
2022/01/18 11:19:32;;;;;;;7.85;1.83;;;7.60;99.90;;;;;;5053449;28;20103;-78
2022/01/18 11:22:01;;;;;;;8.85;1.60;;;7.70;99.90;;;;;;5029265;28;20053;-76
2022/01/18 11:24:29;;;;;;;5.45;1.35;;;7.70;99.90;;;;;;5032001;28;20080;-74
2022/01/18 11:26:56;;;;;;;2.67;0.93;;;7.60;99.90;;;;;;5049438;28;20583;-73
2022/01/18 11:29:21;;;;;;;4.22;1.15;;;7.60;99.90;;;;;;5049910;28;20049;-72
2022/01/18 11:31:53;;;;;;;3.50;1.27;;;7.60;99.90;;;;;;5029211;28;20378;-75
2022/01/18 11:34:42;;;;;;;8.50;1.87;;;7.60;99.90;;;;;;5032429;28;20477;-73
2022/01/18 11:37:32;;;;;;;6.97;1.20;;;7.60;99.90;;;;;;4968840;28;20999;-74
2022/01/18 11:40:07;;;;;;;6.13;1.20;;;7.60;99.90;;;;;;4967330;28;20055;-72
2022/01/18 11:42:42;;;;;;;5.65;1.20;;;7.50;99.90;;;;;;4968290;28;20065;-73
2022/01/18 11:45:28;;;;;;;7.93;1.23;;;7.50;99.90;;;;;;4953777;28;20058;-74
2022/01/18 11:48:04;;;;;;;4.80;1.20;;;7.60;99.90;;;;;;4955432;28;20051;-74
2022/01/18 11:50:33;;;;;;;7.10;1.00;;;7.60;99.90;;;;;;4954792;28;20051;-74
2022/01/18 11:53:26;;;;;;;5.78;0.80;;;7.60;99.90;;;;;;4972227;28;20051;-74
2022/01/18 11:55:56;;;;;;;9.43;1.10;;;7.60;99.90;;;;;;4972100;28;20090;-76
2022/01/18 11:58:23;;;;;;;7.43;1.17;;;7.60;99.90;;;;;;4956723;28;20058;-74
2022/01/18 12:00:57;;;;;;;5.25;1.13;;;7.60;99.90;;;;;;4954729;28;20451;-75
2022/01/18 12:03:27;;;;;;;7.72;0.88;;;7.60;99.90;;;;;;4973051;28;20077;-75
2022/01/18 12:05:54;;;;;;;5.82;1.13;;;7.60;99.90;;;;;;4971341;28;20519;-77
2022/01/18 12:08:33;;;;;;;6.60;1.25;;;7.70;99.90;;;;;;4956069;28;20055;-75
2022/01/18 12:10:59;;;;;;;4.75;1.30;;;7.60;99.90;;;;;;4970475;28;20094;-77
2022/01/18 12:13:28;;;;;;;5.15;1.17;;;7.70;99.90;;;;;;4972160;28;20061;-75
2022/01/18 12:15:58;;;;;;;6.90;1.23;;;8.30;99.90;;;;;;5034740;28;20106;-78
2022/01/18 12:18:26;;;;;;;13.88;1.17;;;7.70;99.90;;;;;;5018953;28;20059;-81
2022/01/18 12:20:55;;;;;;;7.63;1.70;;;7.70;99.90;;;;;;5034375;28;20048;-79
2022/01/18 12:23:41;;;;;;;7.40;1.75;;;7.70;99.90;;;;;;5048445;28;20110;-77
2022/01/18 12:34:25;;;;;;;5.25;1.20;;;7.60;99.90;;;;;;5031054;28;20108;-83
2022/01/18 12:36:55;;;;;;;5.43;1.10;;;7.60;99.90;;;;;;5034783;28;20041;-79
2022/01/18 12:39:21;;;;;;;4.57;1.10;;;8.40;99.90;;;;;;5052901;28;20045;-80
2022/01/18 12:41:52;;;;;;;10.77;1.40;;;7.50;99.90;;;;;;5051167;28;20049;-77
2022/01/18 12:44:20;;;;;;;9.07;1.80;;;7.50;99.90;;;;;;5053274;28;20045;-82
2022/01/18 12:46:58;;;;;;;7.47;1.23;;;7.50;99.90;;;;;;5031320;28;20068;-86
2022/01/18 12:49:25;;;;;;;7.25;1.85;;;7.40;99.90;;;;;;5050731;28;20044;-76
2022/01/18 12:52:00;;;;;;;2.03;0.95;;;7.40;99.90;;;;;;5056903;28;20088;-85
2022/01/18 12:54:37;;;;;;;7.72;2.08;;;7.40;99.90;;;;;;5040509;28;20057;-80
2022/01/18 12:57:20;;;;;;;5.65;1.52;;;7.40;99.90;;;;;;5054791;28;20120;-77
2022/01/18 13:00:08;;;;;;;5.40;1.30;;;7.40;99.90;;;;;;5052810;28;20063;-78
2022/01/18 13:02:34;;;;;;;8.60;2.45;;;7.40;99.90;;;;;;5053956;28;20107;-76
2022/01/18 13:05:01;;;;;;;3.25;1.27;;;7.40;99.90;;;;;;5047719;28;20047;-83
2022/01/18 13:07:28;;;;;;;6.35;1.40;;;7.40;99.90;;;;;;5053793;28;20052;-81
2022/01/18 13:10:03;;;;;;;7.60;1.10;;;7.40;99.90;;;;;;5044170;28;20114;-79
2022/01/18 13:12:35;;;;;;;5.38;1.35;;;7.40;99.90;;;;;;5052622;28;20044;-79
2022/01/18 13:15:04;;;;;;;7.32;2.05;;;7.40;99.90;;;;;;5052826;28;20048;-80
2022/01/18 13:23:36;;;;;;;4.75;1.10;;;7.40;99.90;;;;;;5032013;28;20613;-81
2022/01/18 13:26:03;;;;;;;3.90;1.08;;;7.30;99.90;;;;;;5016983;28;20084;-81
2022/01/18 13:28:33;;;;;;;6.30;1.77;;;7.30;99.90;;;;;;5051921;28;20049;-80
2022/01/18 13:31:18;;;;;;;10.25;1.63;;;7.50;99.90;;;;;;5050869;28;20032;-75
2022/01/18 13:33:50;;;;;;;7.40;1.80;;;7.30;99.90;;;;;;5051668;28;20063;-76
2022/01/18 13:36:16;;;;;;;4.80;1.37;;;7.30;99.90;;;;;;5051365;28;20059;-76
2022/01/18 13:38:41;;;;;;;6.25;1.33;;;7.30;99.90;;;;;;5050623;28;20132;-75
2022/01/18 13:41:07;;;;;;;8.27;1.60;;;7.20;99.90;;;;;;5049938;28;20119;-77
2022/01/18 13:43:33;;;;;;;4.18;1.33;;;7.40;99.90;;;;;;5029293;28;20060;-80
2022/01/18 13:45:59;;;;;;;6.15;1.25;;;7.20;99.90;;;;;;5032297;28;20049;-78
2022/01/18 13:48:33;;;;;;;2.33;0.80;;;7.20;99.90;;;;;;5050410;28;20475;-80
2022/01/18 13:51:07;;;;;;;4.45;1.48;;;7.10;99.90;;;;;;5032031;28;20472;-79
2022/01/18 13:53:34;;;;;;;11.50;1.73;;;7.10;99.90;;;;;;5051237;28;20048;-80
2022/01/18 13:56:16;;;;;;;7.97;1.83;;;7.10;99.90;;;;;;5050818;28;20045;-78
2022/01/18 13:58:48;;;;;;;6.50;1.33;;;7.00;99.90;;;;;;5050909;28;20056;-79
2022/01/18 14:01:24;;;;;;;6.30;1.67;;;7.20;99.90;;;;;;5027968;28;20049;-77
2022/01/18 14:03:52;;;;;;;7.53;1.48;;;7.00;99.90;;;;;;5033543;28;20144;-79
2022/01/18 14:06:19;;;;;;;5.00;1.13;;;7.00;99.90;;;;;;5050617;28;20048;-79
2022/01/18 14:08:47;;;;;;;6.30;1.58;;;7.40;99.90;;;;;;5050399;28;20095;-79
2022/01/18 14:11:17;;;;;;;4.85;1.60;;;6.90;99.90;;;;;;5029291;28;20565;-77
2022/01/18 14:13:43;;;;;;;6.15;1.20;;;6.90;99.90;;;;;;5050572;28;20127;-78
2022/01/18 14:16:25;;;;;;;7.78;1.38;;;6.90;99.90;;;;;;5051761;28;20131;-76
2022/01/18 14:18:55;;;;;;;6.10;1.38;;;7.10;99.90;;;;;;5051797;28;20091;-76
2022/01/18 14:21:25;;;;;;;7.90;1.25;;;7.00;99.90;;;;;;5045928;28;20056;-79
2022/01/18 14:24:14;;;;;;;6.75;1.52;;;7.00;99.90;;;;;;5033143;28;20053;-78
2022/01/18 14:27:04;;;;;;;2.65;1.13;;;7.00;99.90;;;;;;5033589;28;20080;-79